createdAt,value
2022-08-26T00:01:47.263Z,5.12
2022-08-26T00:04:15.328Z,6.10
2022-08-26T00:06:46.299Z,4.45
2022-08-26T00:09:16.025Z,4.82
2022-08-26T00:11:45.662Z,5.60
2022-08-26T00:14:14.876Z,4.50
2022-08-26T00:16:48.005Z,5.20
2022-08-26T00:19:20.558Z,4.85
2022-08-26T00:21:49.659Z,4.82
2022-08-26T00:24:18.701Z,5.45
2022-08-26T00:26:46.523Z,4.95
2022-08-26T00:29:14.855Z,5.12
2022-08-26T00:31:43.028Z,5.30
2022-08-26T00:34:13.927Z,5.80
2022-08-26T00:36:41.792Z,4.93
2022-08-26T00:39:11.114Z,6.35
2022-08-26T00:41:39.917Z,5.40
2022-08-26T00:44:08.002Z,5.10
2022-08-26T00:46:38.065Z,6.60
2022-08-26T00:49:11.953Z,5.25
2022-08-26T00:51:47.439Z,6.40
2022-08-26T00:54:15.256Z,4.75
2022-08-26T00:56:56.486Z,5.30
2022-08-26T00:59:24.249Z,6.62
2022-08-26T01:01:52.595Z,5.20
2022-08-26T01:04:22.236Z,6.82
2022-08-26T01:06:51.833Z,5.50
2022-08-26T01:09:20.160Z,5.43
2022-08-26T01:11:49.346Z,5.45
2022-08-26T01:14:17.105Z,6.30
2022-08-26T01:16:48.345Z,5.35
2022-08-26T01:19:41.417Z,5.22
2022-08-26T01:22:28.190Z,5.80
2022-08-26T01:24:57.127Z,5.65
2022-08-26T01:27:25.890Z,5.75
2022-08-26T01:29:53.980Z,5.55
2022-08-26T01:32:23.396Z,5.30
2022-08-26T01:34:51.250Z,4.97
2022-08-26T01:37:28.623Z,5.15
2022-08-26T01:39:57.344Z,5.65
2022-08-26T01:42:26.127Z,5.50
2022-08-26T01:44:57.294Z,6.35
2022-08-26T01:47:25.579Z,7.70
2022-08-26T01:49:54.547Z,5.75
2022-08-26T01:52:28.095Z,4.75
2022-08-26T01:54:56.644Z,5.95
2022-08-26T01:57:24.434Z,5.97
2022-08-26T01:59:52.249Z,5.05
2022-08-26T02:02:20.055Z,5.20
2022-08-26T02:04:50.268Z,5.00
2022-08-26T02:07:18.893Z,5.28
2022-08-26T02:09:49.312Z,6.35
2022-08-26T02:12:17.955Z,5.45
2022-08-26T02:14:51.458Z,5.35
2022-08-26T02:17:20.159Z,5.80
2022-08-26T02:19:49.818Z,5.87
2022-08-26T02:22:21.973Z,5.18
2022-08-26T02:24:50.790Z,5.20
2022-08-26T02:27:19.578Z,7.72
2022-08-26T02:29:55.991Z,5.90
2022-08-26T02:32:24.105Z,5.57
2022-08-26T02:34:52.040Z,4.90
2022-08-26T02:37:20.202Z,5.65
2022-08-26T02:39:50.873Z,4.72
2022-08-26T02:42:19.955Z,5.07
2022-08-26T02:44:47.675Z,5.37
2022-08-26T02:47:16.152Z,6.18
2022-08-26T02:49:44.451Z,5.05
2022-08-26T02:52:15.136Z,5.15
2022-08-26T02:54:47.840Z,4.87
2022-08-26T02:57:17.433Z,5.22
2022-08-26T02:59:45.225Z,5.20
2022-08-26T03:02:13.561Z,6.10
2022-08-26T03:04:41.366Z,5.03
2022-08-26T03:07:26.005Z,6.05
2022-08-26T03:09:54.163Z,5.70
2022-08-26T03:12:22.016Z,5.78
2022-08-26T03:14:49.774Z,5.62
2022-08-26T03:17:17.555Z,5.40
2022-08-26T03:19:45.566Z,6.97
2022-08-26T03:22:14.506Z,4.82
2022-08-26T03:24:44.400Z,5.10
2022-08-26T03:27:14.519Z,5.40
2022-08-26T03:30:01.156Z,6.87
2022-08-26T03:32:29.259Z,6.07
2022-08-26T03:34:58.669Z,4.87
2022-08-26T03:37:26.525Z,5.28
2022-08-26T03:39:55.352Z,4.85
2022-08-26T03:42:23.275Z,4.90
2022-08-26T03:44:51.142Z,5.22
2022-08-26T03:47:19.103Z,5.85
2022-08-26T03:49:46.943Z,5.55
2022-08-26T03:52:14.982Z,6.55
2022-08-26T03:54:43.475Z,5.37
2022-08-26T03:57:11.380Z,5.90
2022-08-26T03:59:39.102Z,6.18
2022-08-26T04:02:11.706Z,5.53
2022-08-26T04:04:39.712Z,5.30
2022-08-26T04:07:07.965Z,5.68
2022-08-26T04:09:35.925Z,5.37
2022-08-26T04:12:05.023Z,6.40
2022-08-26T04:14:33.405Z,6.47
2022-08-26T04:17:01.196Z,4.78
2022-08-26T04:19:28.983Z,5.15
2022-08-26T04:21:56.830Z,5.78
2022-08-26T04:24:25.807Z,5.47
2022-08-26T04:26:53.655Z,5.65
2022-08-26T04:29:25.082Z,5.60
2022-08-26T04:31:56.049Z,5.15
2022-08-26T04:34:28.702Z,5.50
2022-08-26T04:36:57.218Z,6.18
2022-08-26T04:39:25.426Z,6.87
2022-08-26T04:41:58.442Z,6.32
2022-08-26T04:44:28.558Z,5.93
2022-08-26T04:46:56.428Z,6.50
2022-08-26T04:49:24.277Z,5.60
2022-08-26T04:51:54.144Z,6.18
2022-08-26T04:54:22.764Z,6.07
2022-08-26T04:56:51.837Z,7.07
2022-08-26T04:59:19.784Z,6.15
2022-08-26T05:01:49.910Z,9.10
2022-08-26T05:04:18.767Z,6.75
2022-08-26T05:06:47.530Z,6.72
2022-08-26T05:09:15.986Z,8.15
2022-08-26T05:11:43.783Z,9.05
2022-08-26T05:14:16.568Z,6.07
2022-08-26T05:16:44.372Z,6.03
2022-08-26T05:19:15.603Z,7.20
2022-08-26T05:21:47.160Z,5.20
2022-08-26T05:24:15.134Z,5.95
2022-08-26T05:26:44.443Z,8.00
2022-08-26T05:29:12.942Z,7.43
2022-08-26T05:31:40.718Z,5.75
2022-08-26T05:34:08.676Z,5.53
2022-08-26T05:36:37.097Z,5.07
2022-08-26T05:39:06.361Z,5.20
2022-08-26T05:41:36.847Z,5.60
2022-08-26T05:44:09.373Z,5.60
2022-08-26T05:46:37.714Z,5.60
2022-08-26T05:49:06.514Z,6.10
2022-08-26T05:51:41.225Z,6.57
2022-08-26T05:54:10.315Z,5.47
2022-08-26T05:56:38.959Z,5.53
2022-08-26T05:59:14.129Z,6.18
2022-08-26T06:01:43.016Z,5.85
2022-08-26T06:04:11.347Z,6.07
2022-08-26T06:06:43.079Z,5.28
2022-08-26T06:09:12.984Z,5.43
2022-08-26T06:11:40.817Z,6.53
2022-08-26T06:14:10.858Z,6.47
2022-08-26T06:16:41.146Z,6.75
2022-08-26T06:19:10.397Z,5.65
2022-08-26T06:21:40.477Z,6.32
2022-08-26T06:24:30.363Z,5.80
2022-08-26T06:27:03.644Z,5.78
2022-08-26T06:29:34.211Z,9.07
2022-08-26T06:32:02.591Z,6.10
2022-08-26T06:34:35.854Z,9.88
2022-08-26T06:37:03.939Z,5.68
2022-08-26T06:39:34.224Z,5.75
2022-08-26T06:42:02.677Z,6.62
2022-08-26T06:44:30.840Z,11.18
2022-08-26T06:47:00.319Z,6.30
2022-08-26T06:49:28.408Z,6.12
2022-08-26T06:51:59.194Z,6.55
2022-08-26T06:54:32.687Z,7.78
2022-08-26T06:57:00.415Z,6.60
2022-08-26T06:59:28.190Z,6.07
2022-08-26T07:01:56.321Z,5.53
2022-08-26T07:04:27.790Z,6.00
2022-08-26T07:06:56.009Z,7.35
2022-08-26T07:09:25.033Z,6.75
2022-08-26T07:11:53.203Z,6.37
2022-08-26T07:14:21.929Z,5.95
2022-08-26T07:16:52.883Z,5.35
2022-08-26T07:19:30.482Z,5.97
2022-08-26T07:22:03.530Z,7.72
2022-08-26T07:24:35.414Z,6.15
2022-08-26T07:27:04.849Z,5.80
2022-08-26T07:29:34.165Z,6.40
2022-08-26T07:32:02.233Z,9.85
2022-08-26T07:34:30.766Z,5.75
2022-08-26T07:36:59.029Z,6.78
2022-08-26T07:39:27.574Z,5.80
2022-08-26T07:41:55.404Z,7.32
2022-08-26T07:44:43.190Z,7.82
2022-08-26T07:47:25.212Z,6.93
2022-08-26T07:49:57.784Z,5.95
2022-08-26T07:52:27.481Z,7.25
2022-08-26T07:54:56.829Z,8.50
2022-08-26T07:57:25.077Z,9.13
2022-08-26T07:59:54.076Z,6.40
2022-08-26T08:02:23.111Z,9.20
2022-08-26T08:04:51.081Z,6.80
2022-08-26T08:07:19.463Z,6.25
2022-08-26T08:09:51.825Z,5.68
2022-08-26T08:12:20.289Z,4.75
2022-08-26T08:14:48.330Z,7.45
2022-08-26T08:17:16.303Z,5.55
2022-08-26T08:19:44.209Z,4.78
2022-08-26T08:22:17.758Z,7.10
2022-08-26T08:24:49.864Z,6.55
2022-08-26T08:27:22.822Z,5.75
2022-08-26T08:29:51.795Z,7.60
2022-08-26T08:32:19.982Z,4.57
2022-08-26T08:34:47.813Z,5.20
2022-08-26T08:37:15.604Z,5.82
2022-08-26T08:39:43.996Z,4.80
2022-08-26T08:42:42.021Z,6.35
2022-08-26T08:45:15.058Z,6.85
2022-08-26T08:47:59.722Z,7.78
2022-08-26T08:50:38.436Z,5.90
2022-08-26T08:53:24.309Z,5.65
2022-08-26T08:56:10.229Z,6.12
2022-08-26T08:58:53.053Z,6.28
2022-08-26T09:01:52.440Z,6.07
2022-08-26T09:04:33.857Z,5.78
2022-08-26T09:07:02.649Z,6.25
2022-08-26T09:10:15.138Z,8.45
2022-08-26T09:12:45.436Z,5.45
2022-08-26T09:15:33.179Z,7.95
2022-08-26T09:18:19.061Z,6.35
2022-08-26T09:21:01.122Z,6.53
2022-08-26T09:23:29.267Z,6.25
2022-08-26T09:26:05.159Z,6.78
2022-08-26T09:28:32.974Z,9.68
2022-08-26T09:31:07.987Z,6.47
2022-08-26T09:33:39.007Z,7.10
2022-08-26T09:36:24.826Z,6.32
2022-08-26T09:38:53.413Z,6.68
2022-08-26T09:41:32.801Z,5.78
2022-08-26T09:44:14.526Z,6.22
2022-08-26T09:46:53.383Z,5.40
2022-08-26T09:49:35.714Z,5.87
2022-08-26T09:52:33.544Z,5.95
2022-08-26T09:55:07.417Z,6.40
2022-08-26T09:57:36.744Z,7.35
2022-08-26T10:00:34.208Z,5.53
2022-08-26T10:03:25.395Z,6.25
2022-08-26T10:06:21.175Z,6.20
2022-08-26T10:08:54.249Z,5.93
2022-08-26T10:11:33.326Z,6.60
2022-08-26T10:14:47.834Z,5.80
2022-08-26T10:17:23.121Z,6.93
2022-08-26T10:20:09.809Z,5.62
2022-08-26T10:23:02.485Z,5.97
2022-08-26T10:25:38.463Z,5.15
2022-08-26T10:28:13.329Z,5.68
2022-08-26T10:30:52.988Z,5.70
2022-08-26T10:33:20.855Z,6.03
2022-08-26T10:35:53.960Z,5.47
2022-08-26T10:38:28.694Z,7.03
2022-08-26T10:41:10.417Z,6.43
2022-08-26T10:44:08.756Z,6.45
2022-08-26T10:46:40.954Z,5.97
2022-08-26T10:49:15.390Z,8.30
2022-08-26T10:51:57.595Z,5.37
2022-08-26T10:54:41.623Z,7.60
2022-08-26T10:57:35.347Z,5.82
2022-08-26T11:01:10.136Z,6.53
2022-08-26T11:04:00.181Z,6.37
2022-08-26T11:06:32.411Z,6.50
2022-08-26T11:09:02.356Z,5.30
2022-08-26T11:11:43.150Z,5.50
2022-08-26T11:14:29.240Z,6.32
2022-08-26T11:16:58.667Z,5.72
2022-08-26T11:20:00.345Z,5.12
2022-08-26T11:22:47.346Z,5.55
2022-08-26T11:25:30.841Z,5.30
2022-08-26T11:28:00.973Z,5.82
2022-08-26T11:30:38.725Z,6.80
2022-08-26T11:33:09.316Z,4.60
2022-08-26T11:35:47.803Z,5.40
2022-08-26T11:38:42.526Z,4.78
2022-08-26T11:41:24.668Z,5.00
2022-08-26T11:43:58.910Z,5.00
2022-08-26T11:46:31.918Z,8.02
2022-08-26T11:49:12.705Z,5.45
2022-08-26T11:51:42.559Z,5.40
2022-08-26T11:54:17.477Z,5.10
2022-08-26T11:57:12.497Z,6.15
2022-08-26T11:59:40.981Z,4.93
2022-08-26T12:02:15.583Z,6.97
2022-08-26T12:04:49.986Z,5.22
2022-08-26T12:07:23.863Z,4.75
2022-08-26T12:10:05.936Z,4.57
2022-08-26T12:12:39.684Z,4.35
2022-08-26T12:15:13.075Z,6.72
2022-08-26T12:17:41.115Z,4.45
2022-08-26T12:20:21.557Z,5.68
2022-08-26T12:22:49.444Z,4.57
2022-08-26T12:25:17.495Z,4.40
2022-08-26T12:27:46.209Z,4.47
2022-08-26T12:30:27.035Z,6.00
2022-08-26T12:33:21.904Z,3.80
2022-08-26T12:35:54.774Z,5.85
2022-08-26T12:38:25.508Z,4.00
2022-08-26T12:40:53.461Z,3.50
2022-08-26T12:43:41.090Z,3.75
2022-08-26T12:46:13.863Z,4.75
2022-08-26T12:48:43.696Z,4.25
2022-08-26T12:51:43.505Z,3.50
2022-08-26T12:54:15.156Z,3.70
2022-08-26T12:56:43.040Z,5.37
2022-08-26T12:59:25.533Z,3.22
2022-08-26T13:01:53.586Z,7.30
2022-08-26T13:04:42.381Z,3.55
2022-08-26T13:07:31.292Z,3.80
2022-08-26T13:09:59.913Z,2.37
2022-08-26T13:12:32.303Z,2.42
2022-08-26T13:15:00.976Z,3.78
2022-08-26T13:17:29.438Z,5.10
2022-08-26T13:20:03.290Z,3.28
2022-08-26T13:22:35.365Z,3.60
2022-08-26T13:25:03.183Z,3.03
2022-08-26T13:27:31.693Z,4.40
2022-08-26T13:30:00.304Z,3.00
2022-08-26T13:32:33.964Z,2.42
2022-08-26T13:35:06.802Z,4.18
2022-08-26T13:37:35.655Z,3.72
2022-08-26T13:40:05.952Z,2.83
2022-08-26T13:42:34.396Z,4.82
2022-08-26T13:45:02.526Z,2.70
2022-08-26T13:47:30.474Z,3.22
2022-08-26T13:49:58.378Z,2.90
2022-08-26T13:52:30.252Z,3.47
2022-08-26T13:55:00.699Z,4.40
2022-08-26T13:57:31.317Z,3.87
2022-08-26T14:00:00.463Z,2.70
2022-08-26T14:02:28.780Z,3.53
2022-08-26T14:05:00.837Z,3.47
2022-08-26T14:07:28.642Z,4.07
2022-08-26T14:09:56.453Z,3.03
2022-08-26T14:12:24.188Z,3.72
2022-08-26T14:14:52.298Z,3.37
2022-08-26T14:17:22.443Z,4.95
2022-08-26T14:19:50.925Z,2.87
2022-08-26T14:22:19.919Z,4.53
2022-08-26T14:24:47.744Z,3.72
2022-08-26T14:27:15.802Z,4.40
2022-08-26T14:29:43.757Z,3.00
2022-08-26T14:32:24.037Z,3.03
2022-08-26T14:34:52.179Z,4.60
2022-08-26T14:37:20.146Z,3.28
2022-08-26T14:39:48.244Z,4.57
2022-08-26T14:42:16.736Z,2.45
2022-08-26T14:44:45.754Z,5.35
2022-08-26T14:47:13.607Z,2.47
2022-08-26T14:49:41.423Z,2.62
2022-08-26T14:52:09.403Z,4.12
2022-08-26T14:54:38.490Z,3.80
2022-08-26T14:57:11.752Z,2.90
2022-08-26T14:59:45.477Z,2.25
2022-08-26T15:02:30.877Z,2.37
2022-08-26T15:05:03.186Z,4.55
2022-08-26T15:07:31.264Z,4.53
2022-08-26T15:09:59.015Z,4.50
2022-08-26T15:12:26.882Z,2.80
2022-08-26T15:14:55.013Z,3.40
2022-08-26T15:17:22.955Z,2.25
2022-08-26T15:19:50.756Z,3.35
2022-08-26T15:22:18.732Z,3.42
2022-08-26T15:24:46.827Z,2.60
2022-08-26T15:27:14.668Z,2.30
2022-08-26T15:29:42.743Z,2.50
2022-08-26T15:32:10.756Z,2.20
2022-08-26T15:34:38.969Z,2.62
2022-08-26T15:37:07.636Z,2.97
2022-08-26T15:39:35.784Z,2.72
2022-08-26T15:42:03.703Z,5.32
2022-08-26T15:44:31.921Z,2.55
2022-08-26T15:47:05.063Z,3.00
2022-08-26T15:49:33.029Z,3.33
2022-08-26T15:52:00.973Z,5.35
2022-08-26T15:54:28.837Z,5.80
2022-08-26T15:56:56.694Z,4.72
2022-08-26T15:59:24.799Z,3.33
2022-08-26T16:01:58.080Z,4.65
2022-08-26T16:04:26.206Z,2.95
2022-08-26T16:06:54.133Z,3.35
2022-08-26T16:09:28.362Z,2.70
2022-08-26T16:11:56.927Z,2.72
2022-08-26T16:14:29.423Z,3.33
2022-08-26T16:16:58.614Z,3.40
2022-08-26T16:19:26.467Z,5.25
2022-08-26T16:21:54.434Z,3.83
2022-08-26T16:24:27.144Z,5.12
2022-08-26T16:26:57.910Z,3.60
2022-08-26T16:29:25.730Z,5.75
2022-08-26T16:31:55.739Z,5.45
2022-08-26T16:34:23.685Z,3.53
2022-08-26T16:36:51.959Z,5.43
2022-08-26T16:39:19.769Z,5.47
2022-08-26T16:41:47.573Z,3.40
2022-08-26T16:44:15.393Z,6.72
2022-08-26T16:46:43.319Z,4.68
2022-08-26T16:49:11.106Z,3.75
2022-08-26T16:51:38.986Z,3.53
2022-08-26T16:54:07.724Z,3.12
2022-08-26T16:56:35.560Z,4.45
2022-08-26T16:59:05.392Z,3.37
2022-08-26T17:01:33.381Z,5.10
2022-08-26T17:04:01.361Z,6.07
2022-08-26T17:06:29.160Z,3.95
2022-08-26T17:08:56.959Z,5.25
2022-08-26T17:11:24.812Z,7.15
2022-08-26T17:13:52.700Z,11.95
2022-08-26T17:16:25.876Z,5.75
2022-08-26T17:18:55.365Z,3.62
2022-08-26T17:21:23.201Z,3.85
2022-08-26T17:23:51.405Z,6.07
2022-08-26T17:26:19.316Z,5.40
2022-08-26T17:28:47.280Z,5.03
2022-08-26T17:31:15.248Z,7.25
2022-08-26T17:33:45.851Z,4.20
2022-08-26T17:36:28.154Z,4.00
2022-08-26T17:38:56.573Z,4.20
2022-08-26T17:41:24.437Z,4.32
2022-08-26T17:43:52.310Z,5.28
2022-08-26T17:46:20.168Z,5.62
2022-08-26T17:48:49.405Z,8.13
2022-08-26T17:51:18.178Z,5.30
2022-08-26T17:53:46.166Z,4.03
2022-08-26T17:56:15.138Z,4.37
2022-08-26T17:58:48.019Z,6.28
2022-08-26T18:01:19.825Z,5.62
2022-08-26T18:03:47.733Z,4.40
2022-08-26T18:06:15.797Z,5.72
2022-08-26T18:08:43.797Z,4.20
2022-08-26T18:11:13.775Z,6.45
2022-08-26T18:13:47.136Z,4.93
2022-08-26T18:16:15.722Z,5.20
2022-08-26T18:18:44.193Z,4.57
2022-08-26T18:21:17.039Z,4.32
2022-08-26T18:23:45.795Z,4.50
2022-08-26T18:26:21.879Z,13.18
2022-08-26T18:28:49.696Z,11.98
2022-08-26T18:31:17.565Z,4.80
2022-08-26T18:33:45.637Z,8.23
2022-08-26T18:36:21.411Z,9.35
2022-08-26T18:38:50.449Z,15.30
2022-08-26T18:41:20.311Z,14.60
2022-08-26T18:43:48.466Z,10.77
2022-08-26T18:46:16.333Z,10.07
2022-08-26T18:48:44.287Z,13.82
2022-08-26T18:51:18.401Z,11.52
2022-08-26T18:53:46.342Z,13.25
2022-08-26T18:56:16.669Z,10.32
2022-08-26T18:58:46.403Z,10.07
2022-08-26T19:01:14.597Z,8.50
2022-08-26T19:03:42.573Z,9.82
2022-08-26T19:06:17.266Z,7.18
2022-08-26T19:08:45.260Z,7.45
2022-08-26T19:11:17.754Z,5.75
2022-08-26T19:13:59.794Z,6.93
2022-08-26T19:16:28.073Z,6.70
2022-08-26T19:18:56.077Z,5.62
2022-08-26T19:21:24.126Z,4.47
2022-08-26T19:23:52.122Z,4.68
2022-08-26T19:26:23.157Z,6.97
2022-08-26T19:28:51.130Z,5.87
2022-08-26T19:31:19.026Z,9.60
2022-08-26T19:33:49.552Z,6.70
2022-08-26T19:36:20.977Z,7.07
2022-08-26T19:38:49.151Z,6.12
2022-08-26T19:41:26.594Z,6.90
2022-08-26T19:44:34.947Z,5.97
2022-08-26T19:47:04.660Z,5.87
2022-08-26T19:49:32.927Z,5.25
2022-08-26T19:52:00.811Z,6.10
2022-08-26T19:54:29.403Z,6.78
2022-08-26T19:56:57.302Z,6.43
2022-08-26T19:59:25.753Z,5.55
2022-08-26T20:02:01.178Z,6.32
2022-08-26T20:04:30.920Z,5.97
2022-08-26T20:07:00.526Z,7.18
2022-08-26T20:09:29.894Z,5.78
2022-08-26T20:11:57.965Z,6.37
2022-08-26T20:14:26.874Z,5.15
2022-08-26T20:16:54.941Z,4.97
2022-08-26T20:19:41.266Z,5.22
2022-08-26T20:22:09.347Z,4.15
2022-08-26T20:24:37.397Z,3.85
2022-08-26T20:27:07.947Z,3.92
2022-08-26T20:29:36.403Z,7.25
2022-08-26T20:32:04.915Z,5.47
2022-08-26T20:34:33.254Z,4.50
2022-08-26T20:37:01.108Z,5.18
2022-08-26T20:39:30.763Z,4.05
2022-08-26T20:41:58.806Z,3.78
2022-08-26T20:44:26.706Z,4.75
2022-08-26T20:46:54.485Z,5.35
2022-08-26T20:49:22.322Z,5.40
2022-08-26T20:51:52.620Z,6.95
2022-08-26T20:54:26.163Z,5.72
2022-08-26T20:56:56.781Z,3.62
2022-08-26T20:59:24.552Z,4.93
2022-08-26T21:01:52.544Z,3.37
2022-08-26T21:04:22.216Z,6.85
2022-08-26T21:06:52.680Z,3.62
2022-08-26T21:09:21.631Z,10.10
2022-08-26T21:11:49.716Z,7.25
2022-08-26T21:14:17.551Z,5.07
2022-08-26T21:16:45.668Z,4.37
2022-08-26T21:19:19.075Z,4.82
2022-08-26T21:21:48.225Z,3.62
2022-08-26T21:24:16.230Z,5.40
2022-08-26T21:26:44.106Z,2.05
2022-08-26T21:29:12.034Z,2.78
2022-08-26T21:31:45.421Z,3.47
2022-08-26T21:34:15.062Z,2.50
2022-08-26T21:36:43.053Z,2.53
2022-08-26T21:39:12.197Z,2.78
2022-08-26T21:41:40.702Z,3.53
2022-08-26T21:44:08.691Z,2.42
2022-08-26T21:46:38.414Z,5.28
2022-08-26T21:49:08.528Z,4.18
2022-08-26T21:51:38.044Z,2.33
2022-08-26T21:54:10.704Z,3.17
2022-08-26T21:56:42.121Z,2.15
2022-08-26T21:59:10.033Z,2.37
2022-08-26T22:01:37.981Z,1.83
2022-08-26T22:04:07.469Z,2.78
2022-08-26T22:06:36.593Z,2.20
2022-08-26T22:09:04.440Z,4.15
2022-08-26T22:11:32.969Z,2.70
2022-08-26T22:14:00.814Z,2.83
2022-08-26T22:16:29.829Z,3.37
2022-08-26T22:18:57.754Z,2.58
2022-08-26T22:21:26.364Z,1.98
2022-08-26T22:23:56.109Z,3.10
2022-08-26T22:26:27.341Z,3.83
2022-08-26T22:28:58.526Z,2.33
2022-08-26T22:31:29.040Z,2.17
2022-08-26T22:34:10.664Z,3.75
2022-08-26T22:36:42.945Z,2.65
2022-08-26T22:39:11.176Z,3.37
2022-08-26T22:41:38.976Z,2.70
2022-08-26T22:44:06.975Z,3.17
2022-08-26T22:46:35.988Z,2.67
2022-08-26T22:49:05.784Z,2.95
2022-08-26T22:51:33.593Z,2.42
2022-08-26T22:54:01.864Z,3.72
2022-08-26T22:56:29.680Z,2.55
2022-08-26T22:58:57.475Z,3.33
2022-08-26T23:01:25.328Z,3.72
2022-08-26T23:03:53.110Z,3.28
2022-08-26T23:06:20.932Z,3.53
2022-08-26T23:08:48.835Z,3.80
2022-08-26T23:11:16.643Z,3.95
2022-08-26T23:13:44.501Z,3.15
2022-08-26T23:16:13.046Z,2.45
2022-08-26T23:18:41.548Z,4.28
2022-08-26T23:21:09.583Z,5.78
2022-08-26T23:23:37.764Z,3.15
2022-08-26T23:26:06.473Z,4.57
2022-08-26T23:28:34.665Z,3.37
2022-08-26T23:31:02.522Z,2.90
2022-08-26T23:33:50.271Z,3.28
2022-08-26T23:36:18.398Z,3.53
2022-08-26T23:38:53.185Z,2.75
2022-08-26T23:41:22.971Z,3.72
2022-08-26T23:43:51.186Z,3.17
2022-08-26T23:46:19.734Z,5.10
2022-08-26T23:48:47.904Z,2.40
2022-08-26T23:51:34.287Z,4.05
2022-08-26T23:54:02.133Z,2.60
2022-08-26T23:56:30.255Z,2.45
2022-08-26T23:58:58.052Z,1.98
